PWSweather.com
Personal Weather Stations
Station Observations
WESTON01
WestonSuperMareGB BS22 8RT

WestonSuperMareGB BS22 8RT

Lat: 51.351508, Lon: -2.933373

Elevation: 15

Station Type: Fine Offset WH1080

http://www.westonweather.co.uk

High Low Average
Temperature 84.1°F28.9°C 58.9°F14.9°C 72.3°F22.4°C
Dew Point 56.2°F13.4°C 43.6°F6.4°C 49.7°F9.8°C
Winds 9.5 mph 15.3 kmh Calm Calm 4.0 mph SSW6.4 kmh SSW
Wind Gusts 15.2 mph24.5 kmh -- 7.0 mph11.3 kmh
Humidity 60% 35% 46%
Pressure 30.21 in1023.0 mb 30.15 in1021.0 mb -
Precipitation 0.00 in0.0 mm - -
Hour Temp Dew Point Humidity Winds Wind Gusts Pressure Precip Precip Rate Daily Precip Total
12:00 AM 65.9°F18.8°C 44.0°F6.7°C 45% 1.8 mph SE2.9 kmh SE 3.9 mph6.3 kmh 30.18 in1022.0 mb 0.00 in0.0 mm 0.00 in0.0 mm 0.00 in0.0 mm
12:05 AM 65.8°F18.8°C 43.8°F6.6°C 45% 1.7 mph SSE2.7 kmh SSE 3.9 mph6.3 kmh 30.18 in1022.0 mb 0.00 in0.0 mm 0.00 in0.0 mm 0.00 in0.0 mm
12:10 AM 65.8°F18.8°C 43.8°F6.6°C 45% 1.3 mph S2.1 kmh S 3.0 mph4.8 kmh 30.21 in1023.0 mb 0.00 in0.0 mm 0.00 in0.0 mm 0.00 in0.0 mm
12:15 AM 65.6°F18.7°C 44.2°F6.8°C 46% 1.5 mph SE2.4 kmh SE 3.0 mph4.8 kmh 30.21 in1023.0 mb 0.00 in0.0 mm 0.00 in0.0 mm 0.00 in0.0 mm
12:20 AM 65.6°F18.7°C 44.2°F6.8°C 46% 1.4 mph SSE2.3 kmh SSE 3.0 mph4.8 kmh 30.21 in1023.0 mb 0.00 in0.0 mm 0.00 in0.0 mm 0.00 in0.0 mm
12:25 AM 65.4°F18.6°C 44.1°F6.7°C 46% 1.0 mph SSE1.6 kmh SSE 3.6 mph5.8 kmh 30.18 in1022.0 mb 0.00 in0.0 mm 0.00 in0.0 mm 0.00 in0.0 mm
12:30 AM 65.2°F18.4°C 43.9°F6.6°C 46% 0.7 mph SE1.1 kmh SE 3.6 mph5.8 kmh 30.18 in1022.0 mb 0.00 in0.0 mm 0.00 in0.0 mm 0.00 in0.0 mm
12:35 AM 65.2°F18.4°C 43.9°F6.6°C 46% 0.9 mph ESE1.4 kmh ESE 2.1 mph3.4 kmh 30.18 in1022.0 mb 0.00 in0.0 mm 0.00 in0.0 mm 0.00 in0.0 mm
12:40 AM 65.2°F18.4°C 43.9°F6.6°C 46% 0.9 mph ESE1.4 kmh ESE 2.7 mph4.3 kmh 30.18 in1022.0 mb 0.00 in0.0 mm 0.00 in0.0 mm 0.00 in0.0 mm
12:45 AM 65.0°F18.3°C 43.7°F6.5°C 46% 1.2 mph SE1.9 kmh SE 2.7 mph4.3 kmh 30.18 in1022.0 mb 0.00 in0.0 mm 0.00 in0.0 mm 0.00 in0.0 mm
12:50 AM 65.0°F18.3°C 43.7°F6.5°C 46% 1.0 mph SSE1.6 kmh SSE 2.7 mph4.3 kmh 30.18 in1022.0 mb 0.00 in0.0 mm 0.00 in0.0 mm 0.00 in0.0 mm
12:55 AM 64.8°F18.2°C 43.6°F6.4°C 46% 0.4 mph SSE0.6 kmh SSE 2.7 mph4.3 kmh 30.18 in1022.0 mb 0.00 in0.0 mm 0.00 in0.0 mm 0.00 in0.0 mm
01:00 AM 64.8°F18.2°C 44.1°F6.7°C 47% 0.1 mph S0.2 kmh S 1.5 mph2.4 kmh 30.18 in1022.0 mb 0.00 in0.0 mm 0.00 in0.0 mm 0.00 in0.0 mm
01:05 AM 64.7°F18.2°C 44.0°F6.7°C 47% Calm Calm -- 30.18 in1022.0 mb 0.00 in0.0 mm 0.00 in0.0 mm 0.00 in0.0 mm
01:10 AM 64.7°F18.2°C 44.0°F6.7°C 47% 0.2 mph S0.3 kmh S 1.5 mph2.4 kmh 30.18 in1022.0 mb 0.00 in0.0 mm 0.00 in0.0 mm 0.00 in0.0 mm
01:15 AM 64.5°F18.1°C 43.8°F6.6°C 47% 0.2 mph S0.3 kmh S 1.5 mph2.4 kmh 30.18 in1022.0 mb 0.00 in0.0 mm 0.00 in0.0 mm 0.00 in0.0 mm
01:20 AM 64.3°F17.9°C 43.6°F6.4°C 47% Calm Calm -- 30.18 in1022.0 mb 0.00 in0.0 mm 0.00 in0.0 mm 0.00 in0.0 mm
01:25 AM 64.3°F17.9°C 43.6°F6.4°C 47% 0.2 mph E0.3 kmh E 1.5 mph2.4 kmh 30.18 in1022.0 mb 0.00 in0.0 mm 0.00 in0.0 mm 0.00 in0.0 mm
01:30 AM 64.1°F17.8°C 44.0°F6.7°C 48% 0.9 mph E1.4 kmh E 2.7 mph4.3 kmh 30.18 in1022.0 mb 0.00 in0.0 mm 0.00 in0.0 mm 0.00 in0.0 mm
01:35 AM 64.1°F17.8°C 44.0°F6.7°C 48% 2.0 mph E3.2 kmh E 3.6 mph5.8 kmh 30.18 in1022.0 mb 0.00 in0.0 mm 0.00 in0.0 mm 0.00 in0.0 mm
01:40 AM 64.0°F17.8°C 43.9°F6.6°C 48% 2.4 mph E3.9 kmh E 3.6 mph5.8 kmh 30.18 in1022.0 mb 0.00 in0.0 mm 0.00 in0.0 mm 0.00 in0.0 mm
01:45 AM 63.8°F17.7°C 43.7°F6.5°C 48% 2.3 mph E3.7 kmh E 3.6 mph5.8 kmh 30.18 in1022.0 mb 0.00 in0.0 mm 0.00 in0.0 mm 0.00 in0.0 mm
01:50 AM 63.6°F17.6°C 44.1°F6.7°C 49% 3.1 mph E5.0 kmh E 4.5 mph7.2 kmh 30.18 in1022.0 mb 0.00 in0.0 mm 0.00 in0.0 mm 0.00 in0.0 mm
01:55 AM 63.6°F17.6°C 44.1°F6.7°C 49% 3.1 mph E5.0 kmh E 4.5 mph7.2 kmh 30.18 in1022.0 mb 0.00 in0.0 mm 0.00 in0.0 mm 0.00 in0.0 mm
02:00 AM 63.4°F17.4°C 43.9°F6.6°C 49% 2.6 mph E4.2 kmh E 4.2 mph6.8 kmh 30.18 in1022.0 mb 0.00 in0.0 mm 0.00 in0.0 mm 0.00 in0.0 mm
02:05 AM 63.4°F17.4°C 43.9°F6.6°C 49% 2.9 mph E4.7 kmh E 4.2 mph6.8 kmh 30.18 in1022.0 mb 0.00 in0.0 mm 0.00 in0.0 mm 0.00 in0.0 mm
02:10 AM 63.2°F17.3°C 44.3°F6.8°C 50% 2.6 mph E4.2 kmh E 4.2 mph6.8 kmh 30.18 in1022.0 mb 0.00 in0.0 mm 0.00 in0.0 mm 0.00 in0.0 mm
02:15 AM 63.0°F17.2°C 44.1°F6.7°C 50% 2.1 mph E3.4 kmh E 3.6 mph5.8 kmh 30.18 in1022.0 mb 0.00 in0.0 mm 0.00 in0.0 mm 0.00 in0.0 mm
02:20 AM 63.0°F17.2°C 44.1°F6.7°C 50% 2.4 mph E3.9 kmh E 3.9 mph6.3 kmh 30.18 in1022.0 mb 0.00 in0.0 mm 0.00 in0.0 mm 0.00 in0.0 mm
02:25 AM 62.9°F17.2°C 44.5°F6.9°C 51% 3.0 mph E4.8 kmh E 4.2 mph6.8 kmh 30.18 in1022.0 mb 0.00 in0.0 mm 0.00 in0.0 mm 0.00 in0.0 mm
02:30 AM 62.7°F17.1°C 44.3°F6.8°C 51% 3.4 mph E5.5 kmh E 4.2 mph6.8 kmh 30.18 in1022.0 mb 0.00 in0.0 mm 0.00 in0.0 mm 0.00 in0.0 mm
02:35 AM 62.7°F17.1°C 44.3°F6.8°C 51% 3.5 mph E5.6 kmh E 4.2 mph6.8 kmh 30.18 in1022.0 mb 0.00 in0.0 mm 0.00 in0.0 mm 0.00 in0.0 mm
02:40 AM 62.5°F16.9°C 44.6°F7.0°C 52% 2.7 mph E4.3 kmh E 3.9 mph6.3 kmh 30.18 in1022.0 mb 0.00 in0.0 mm 0.00 in0.0 mm 0.00 in0.0 mm
02:45 AM 62.3°F16.8°C 44.5°F6.9°C 52% 3.3 mph E5.3 kmh E 5.1 mph8.2 kmh 30.18 in1022.0 mb 0.00 in0.0 mm 0.00 in0.0 mm 0.00 in0.0 mm
02:50 AM 62.3°F16.8°C 44.5°F6.9°C 52% 3.7 mph E6.0 kmh E 5.4 mph8.7 kmh 30.18 in1022.0 mb 0.00 in0.0 mm 0.00 in0.0 mm 0.00 in0.0 mm
02:55 AM 62.2°F16.8°C 44.3°F6.8°C 52% 4.0 mph E6.4 kmh E 5.4 mph8.7 kmh 30.18 in1022.0 mb 0.00 in0.0 mm 0.00 in0.0 mm 0.00 in0.0 mm
03:00 AM 62.0°F16.7°C 44.1°F6.7°C 52% 3.9 mph E6.3 kmh E 5.4 mph8.7 kmh 30.18 in1022.0 mb 0.00 in0.0 mm 0.00 in0.0 mm 0.00 in0.0 mm
03:05 AM 62.0°F16.7°C 44.6°F7.0°C 53% 3.6 mph E5.8 kmh E 5.4 mph8.7 kmh 30.18 in1022.0 mb 0.00 in0.0 mm 0.00 in0.0 mm 0.00 in0.0 mm
03:10 AM 61.8°F16.6°C 44.5°F6.9°C 53% 3.8 mph E6.1 kmh E 5.4 mph8.7 kmh 30.18 in1022.0 mb 0.00 in0.0 mm 0.00 in0.0 mm 0.00 in0.0 mm
03:15 AM 61.6°F16.4°C 44.3°F6.8°C 53% 4.0 mph E6.4 kmh E 4.8 mph7.7 kmh 30.18 in1022.0 mb 0.00 in0.0 mm 0.00 in0.0 mm 0.00 in0.0 mm
03:20 AM 61.4°F16.3°C 44.1°F6.7°C 53% 4.2 mph E6.8 kmh E 5.1 mph8.2 kmh 30.18 in1022.0 mb 0.00 in0.0 mm 0.00 in0.0 mm 0.00 in0.0 mm
03:25 AM 61.4°F16.3°C 44.1°F6.7°C 53% 4.4 mph E7.1 kmh E 5.7 mph9.2 kmh 30.18 in1022.0 mb 0.00 in0.0 mm 0.00 in0.0 mm 0.00 in0.0 mm
03:30 AM 61.3°F16.3°C 44.5°F6.9°C 54% 4.6 mph ENE7.4 kmh ENE 6.5 mph10.5 kmh 30.18 in1022.0 mb 0.00 in0.0 mm 0.00 in0.0 mm 0.00 in0.0 mm
03:35 AM 61.1°F16.2°C 44.3°F6.8°C 54% 4.8 mph ENE7.7 kmh ENE 6.5 mph10.5 kmh 30.18 in1022.0 mb 0.00 in0.0 mm 0.00 in0.0 mm 0.00 in0.0 mm
03:40 AM 61.1°F16.2°C 44.3°F6.8°C 54% 5.0 mph ENE8.0 kmh ENE 6.5 mph10.5 kmh 30.18 in1022.0 mb 0.00 in0.0 mm 0.00 in0.0 mm 0.00 in0.0 mm
03:45 AM 60.7°F15.9°C 44.4°F6.9°C 55% 4.5 mph ENE7.2 kmh ENE 6.2 mph10.0 kmh 30.18 in1022.0 mb 0.00 in0.0 mm 0.00 in0.0 mm 0.00 in0.0 mm
03:50 AM 60.7°F15.9°C 44.4°F6.9°C 55% 3.3 mph ENE5.3 kmh ENE 5.1 mph8.2 kmh 30.18 in1022.0 mb 0.00 in0.0 mm 0.00 in0.0 mm 0.00 in0.0 mm
03:55 AM 60.3°F15.7°C 44.1°F6.7°C 55% 3.4 mph ENE5.5 kmh ENE 5.1 mph8.2 kmh 30.18 in1022.0 mb 0.00 in0.0 mm 0.00 in0.0 mm 0.00 in0.0 mm
04:00 AM 60.2°F15.7°C 43.9°F6.6°C 55% 4.0 mph ENE6.4 kmh ENE 5.1 mph8.2 kmh 30.18 in1022.0 mb 0.00 in0.0 mm 0.00 in0.0 mm 0.00 in0.0 mm
04:05 AM 60.0°F15.6°C 43.8°F6.6°C 55% 3.5 mph E5.6 kmh E 5.1 mph8.2 kmh 30.18 in1022.0 mb 0.00 in0.0 mm 0.00 in0.0 mm 0.00 in0.0 mm
04:10 AM 59.8°F15.4°C 44.1°F6.7°C 56% 3.4 mph E5.5 kmh E 4.5 mph7.2 kmh 30.18 in1022.0 mb 0.00 in0.0 mm 0.00 in0.0 mm 0.00 in0.0 mm
04:15 AM 59.6°F15.3°C 43.9°F6.6°C 56% 4.7 mph E7.6 kmh E 8.0 mph12.9 kmh 30.18 in1022.0 mb 0.00 in0.0 mm 0.00 in0.0 mm 0.00 in0.0 mm
04:20 AM 59.5°F15.3°C 43.7°F6.5°C 56% 5.3 mph E8.5 kmh E 8.0 mph12.9 kmh 30.18 in1022.0 mb 0.00 in0.0 mm 0.00 in0.0 mm 0.00 in0.0 mm
04:25 AM 59.5°F15.3°C 44.2°F6.8°C 57% 4.3 mph E6.9 kmh E 7.1 mph11.4 kmh 30.18 in1022.0 mb 0.00 in0.0 mm 0.00 in0.0 mm 0.00 in0.0 mm
04:40 AM 59.1°F15.1°C 44.3°F6.8°C 58% 4.1 mph ENE6.6 kmh ENE 5.1 mph8.2 kmh 30.18 in1022.0 mb 0.00 in0.0 mm 0.00 in0.0 mm 0.00 in0.0 mm
04:45 AM 58.9°F14.9°C 44.2°F6.8°C 58% 3.9 mph ENE6.3 kmh ENE 5.1 mph8.2 kmh 30.18 in1022.0 mb 0.00 in0.0 mm 0.00 in0.0 mm 0.00 in0.0 mm
04:50 AM 58.9°F14.9°C 44.6°F7.0°C 59% 3.2 mph ENE5.1 kmh ENE 4.8 mph7.7 kmh 30.18 in1022.0 mb 0.00 in0.0 mm 0.00 in0.0 mm 0.00 in0.0 mm
04:55 AM 58.9°F14.9°C 44.6°F7.0°C 59% 3.2 mph ENE5.1 kmh ENE 4.8 mph7.7 kmh 30.18 in1022.0 mb 0.00 in0.0 mm 0.00 in0.0 mm 0.00 in0.0 mm
05:00 AM 58.9°F14.9°C 44.6°F7.0°C 59% 4.4 mph E7.1 kmh E 7.4 mph11.9 kmh 30.18 in1022.0 mb 0.00 in0.0 mm 0.00 in0.0 mm 0.00 in0.0 mm
05:05 AM 58.9°F14.9°C 44.6°F7.0°C 59% 5.2 mph E8.4 kmh E 7.4 mph11.9 kmh 30.18 in1022.0 mb 0.00 in0.0 mm 0.00 in0.0 mm 0.00 in0.0 mm
05:10 AM 59.1°F15.1°C 44.8°F7.1°C 59% 5.1 mph ENE8.2 kmh ENE 6.5 mph10.5 kmh 30.18 in1022.0 mb 0.00 in0.0 mm 0.00 in0.0 mm 0.00 in0.0 mm
05:15 AM 59.5°F15.3°C 45.6°F7.6°C 60% 4.5 mph ENE7.2 kmh ENE 6.5 mph10.5 kmh 30.18 in1022.0 mb 0.00 in0.0 mm 0.00 in0.0 mm 0.00 in0.0 mm
05:20 AM 61.1°F16.2°C 46.6°F8.1°C 59% 4.3 mph ENE6.9 kmh ENE 7.1 mph11.4 kmh 30.18 in1022.0 mb 0.00 in0.0 mm 0.00 in0.0 mm 0.00 in0.0 mm
05:25 AM 60.3°F15.7°C 46.4°F8.0°C 60% 3.9 mph NE6.3 kmh NE 7.1 mph11.4 kmh 30.18 in1022.0 mb 0.00 in0.0 mm 0.00 in0.0 mm 0.00 in0.0 mm
05:30 AM 60.9°F16.1°C 46.9°F8.3°C 60% 5.1 mph ENE8.2 kmh ENE 7.1 mph11.4 kmh 30.18 in1022.0 mb 0.00 in0.0 mm 0.00 in0.0 mm 0.00 in0.0 mm
05:35 AM 61.3°F16.3°C 47.2°F8.4°C 60% 4.3 mph ENE6.9 kmh ENE 7.1 mph11.4 kmh 30.18 in1022.0 mb 0.00 in0.0 mm 0.00 in0.0 mm 0.00 in0.0 mm
05:40 AM 61.6°F16.4°C 47.1°F8.4°C 59% 4.8 mph E7.7 kmh E 6.5 mph10.5 kmh 30.18 in1022.0 mb 0.00 in0.0 mm 0.00 in0.0 mm 0.00 in0.0 mm
05:45 AM 61.8°F16.6°C 47.3°F8.5°C 59% 4.6 mph E7.4 kmh E 6.5 mph10.5 kmh 30.18 in1022.0 mb 0.00 in0.0 mm 0.00 in0.0 mm 0.00 in0.0 mm
05:50 AM 62.3°F16.8°C 47.8°F8.8°C 59% 5.0 mph ENE8.0 kmh ENE 8.0 mph12.9 kmh 30.18 in1022.0 mb 0.00 in0.0 mm 0.00 in0.0 mm 0.00 in0.0 mm
05:55 AM 62.9°F17.2°C 48.3°F9.1°C 59% 5.2 mph NE8.4 kmh NE 8.0 mph12.9 kmh 30.21 in1023.0 mb 0.00 in0.0 mm 0.00 in0.0 mm 0.00 in0.0 mm
06:00 AM 63.2°F17.3°C 48.2°F9.0°C 58% 4.9 mph ENE7.9 kmh ENE 7.1 mph11.4 kmh 30.21 in1023.0 mb 0.00 in0.0 mm 0.00 in0.0 mm 0.00 in0.0 mm
06:05 AM 63.4°F17.4°C 48.4°F9.1°C 58% 4.0 mph ENE6.4 kmh ENE 5.7 mph9.2 kmh 30.21 in1023.0 mb 0.00 in0.0 mm 0.00 in0.0 mm 0.00 in0.0 mm
06:10 AM 64.1°F17.8°C 48.6°F9.2°C 57% 3.8 mph ENE6.1 kmh ENE 5.1 mph8.2 kmh 30.21 in1023.0 mb 0.00 in0.0 mm 0.00 in0.0 mm 0.00 in0.0 mm
06:15 AM 64.5°F18.1°C 48.9°F9.4°C 57% 4.8 mph ENE7.7 kmh ENE 7.1 mph11.4 kmh 30.21 in1023.0 mb 0.00 in0.0 mm 0.00 in0.0 mm 0.00 in0.0 mm
06:20 AM 65.2°F18.4°C 49.1°F9.5°C 56% 4.7 mph ENE7.6 kmh ENE 7.1 mph11.4 kmh 30.21 in1023.0 mb 0.00 in0.0 mm 0.00 in0.0 mm 0.00 in0.0 mm
06:25 AM 65.8°F18.8°C 49.6°F9.8°C 56% 4.7 mph E7.6 kmh E 10.4 mph16.7 kmh 30.21 in1023.0 mb 0.00 in0.0 mm 0.00 in0.0 mm 0.00 in0.0 mm
06:30 AM 65.8°F18.8°C 49.1°F9.5°C 55% 5.8 mph E9.3 kmh E 10.4 mph16.7 kmh 30.21 in1023.0 mb 0.00 in0.0 mm 0.00 in0.0 mm 0.00 in0.0 mm
06:31 AM 65.8°F18.8°C 49.1°F9.5°C 55% 6.5 mph E10.5 kmh E 10.4 mph16.7 kmh 30.21 in1023.0 mb 0.00 in0.0 mm 0.00 in0.0 mm 0.00 in0.0 mm
06:35 AM 65.6°F18.7°C 49.0°F9.4°C 55% 7.2 mph E11.6 kmh E 9.8 mph15.8 kmh 30.21 in1023.0 mb 0.00 in0.0 mm 0.00 in0.0 mm 0.00 in0.0 mm
06:40 AM 65.4°F18.6°C 48.8°F9.3°C 55% 7.3 mph E11.7 kmh E 11.3 mph18.2 kmh 30.21 in1023.0 mb 0.00 in0.0 mm 0.00 in0.0 mm 0.00 in0.0 mm
06:45 AM 65.2°F18.4°C 48.6°F9.2°C 55% 6.7 mph E10.8 kmh E 11.3 mph18.2 kmh 30.21 in1023.0 mb 0.00 in0.0 mm 0.00 in0.0 mm 0.00 in0.0 mm
06:50 AM 65.4°F18.6°C 48.8°F9.3°C 55% 6.4 mph E10.3 kmh E 11.3 mph18.2 kmh 30.21 in1023.0 mb 0.00 in0.0 mm 0.00 in0.0 mm 0.00 in0.0 mm
06:55 AM 66.3°F19.1°C 50.1°F10.1°C 56% 6.0 mph E9.7 kmh E 7.7 mph12.4 kmh 30.21 in1023.0 mb 0.00 in0.0 mm 0.00 in0.0 mm 0.00 in0.0 mm
07:00 AM 66.5°F19.2°C 49.8°F9.9°C 55% 4.9 mph E7.9 kmh E 7.1 mph11.4 kmh 30.21 in1023.0 mb 0.00 in0.0 mm 0.00 in0.0 mm 0.00 in0.0 mm
07:05 AM 66.7°F19.3°C 50.0°F10.0°C 55% 5.1 mph E8.2 kmh E 7.7 mph12.4 kmh 30.21 in1023.0 mb 0.00 in0.0 mm 0.00 in0.0 mm 0.00 in0.0 mm
07:10 AM 66.7°F19.3°C 50.0°F10.0°C 55% 5.5 mph E8.9 kmh E 7.7 mph12.4 kmh 30.21 in1023.0 mb 0.00 in0.0 mm 0.00 in0.0 mm 0.00 in0.0 mm
07:15 AM 66.7°F19.3°C 49.5°F9.7°C 54% 6.1 mph ENE9.8 kmh ENE 8.0 mph12.9 kmh 30.21 in1023.0 mb 0.00 in0.0 mm 0.00 in0.0 mm 0.00 in0.0 mm
07:20 AM 67.0°F19.4°C 49.8°F9.9°C 54% 6.0 mph E9.7 kmh E 8.0 mph12.9 kmh 30.21 in1023.0 mb 0.00 in0.0 mm 0.00 in0.0 mm 0.00 in0.0 mm
07:25 AM 67.4°F19.7°C 50.1°F10.1°C 54% 5.1 mph ENE8.2 kmh ENE 7.1 mph11.4 kmh 30.21 in1023.0 mb 0.00 in0.0 mm 0.00 in0.0 mm 0.00 in0.0 mm
07:30 AM 68.1°F20.1°C 50.8°F10.4°C 54% 4.7 mph ENE7.6 kmh ENE 7.1 mph11.4 kmh 30.21 in1023.0 mb 0.00 in0.0 mm 0.00 in0.0 mm 0.00 in0.0 mm
07:35 AM 68.6°F20.3°C 51.3°F10.7°C 54% 5.2 mph ENE8.4 kmh ENE 8.3 mph13.4 kmh 30.21 in1023.0 mb 0.00 in0.0 mm 0.00 in0.0 mm 0.00 in0.0 mm
07:40 AM 69.3°F20.7°C 51.5°F10.8°C 53% 6.2 mph E10.0 kmh E 8.3 mph13.4 kmh 30.21 in1023.0 mb 0.00 in0.0 mm 0.00 in0.0 mm 0.00 in0.0 mm
07:45 AM 69.5°F20.8°C 51.1°F10.6°C 52% 5.5 mph E8.9 kmh E 8.3 mph13.4 kmh 30.21 in1023.0 mb 0.00 in0.0 mm 0.00 in0.0 mm 0.00 in0.0 mm
07:50 AM 70.3°F21.3°C 51.8°F11.0°C 52% 5.4 mph E8.7 kmh E 8.3 mph13.4 kmh 30.21 in1023.0 mb 0.00 in0.0 mm 0.00 in0.0 mm 0.00 in0.0 mm
07:55 AM 70.4°F21.3°C 52.0°F11.1°C 52% 5.3 mph NE8.5 kmh NE 8.3 mph13.4 kmh 30.21 in1023.0 mb 0.00 in0.0 mm 0.00 in0.0 mm 0.00 in0.0 mm
08:00 AM 71.7°F22.1°C 52.6°F11.4°C 51% 3.8 mph ENE6.1 kmh ENE 7.1 mph11.4 kmh 30.21 in1023.0 mb 0.00 in0.0 mm 0.00 in0.0 mm 0.00 in0.0 mm
08:05 AM 72.1°F22.3°C 52.4°F11.3°C 50% 3.1 mph E5.0 kmh E 5.7 mph9.2 kmh 30.21 in1023.0 mb 0.00 in0.0 mm 0.00 in0.0 mm 0.00 in0.0 mm
08:10 AM 73.1°F22.8°C 52.8°F11.6°C 49% 4.6 mph E7.4 kmh E 6.2 mph10.0 kmh 30.21 in1023.0 mb 0.00 in0.0 mm 0.00 in0.0 mm 0.00 in0.0 mm
08:15 AM 73.5°F23.1°C 53.2°F11.8°C 49% 4.0 mph E6.4 kmh E 7.7 mph12.4 kmh 30.21 in1023.0 mb 0.00 in0.0 mm 0.00 in0.0 mm 0.00 in0.0 mm
08:20 AM 74.4°F23.6°C 53.4°F11.9°C 48% 2.8 mph E4.5 kmh E 7.7 mph12.4 kmh 30.21 in1023.0 mb 0.00 in0.0 mm 0.00 in0.0 mm 0.00 in0.0 mm
08:25 AM 74.8°F23.8°C 53.7°F12.1°C 48% 2.4 mph E3.9 kmh E 4.2 mph6.8 kmh 30.21 in1023.0 mb 0.00 in0.0 mm 0.00 in0.0 mm 0.00 in0.0 mm
08:30 AM 75.1°F23.9°C 53.5°F11.9°C 47% 3.1 mph E5.0 kmh E 5.4 mph8.7 kmh 30.21 in1023.0 mb 0.00 in0.0 mm 0.00 in0.0 mm 0.00 in0.0 mm
08:35 AM 74.8°F23.8°C 52.6°F11.4°C 46% 2.9 mph E4.7 kmh E 5.4 mph8.7 kmh 30.21 in1023.0 mb 0.00 in0.0 mm 0.00 in0.0 mm 0.00 in0.0 mm
08:40 AM 74.6°F23.7°C 52.4°F11.3°C 46% 2.5 mph E4.0 kmh E 5.1 mph8.2 kmh 30.21 in1023.0 mb 0.00 in0.0 mm 0.00 in0.0 mm 0.00 in0.0 mm
08:45 AM 74.8°F23.8°C 52.6°F11.4°C 46% 3.5 mph E5.6 kmh E 7.1 mph11.4 kmh 30.21 in1023.0 mb 0.00 in0.0 mm 0.00 in0.0 mm 0.00 in0.0 mm
08:50 AM 74.8°F23.8°C 52.6°F11.4°C 46% 4.2 mph E6.8 kmh E 7.1 mph11.4 kmh 30.21 in1023.0 mb 0.00 in0.0 mm 0.00 in0.0 mm 0.00 in0.0 mm
08:55 AM 75.1°F23.9°C 52.9°F11.6°C 46% 4.2 mph E6.8 kmh E 6.5 mph10.5 kmh 30.21 in1023.0 mb 0.00 in0.0 mm 0.00 in0.0 mm 0.00 in0.0 mm
09:00 AM 74.9°F23.8°C 52.2°F11.2°C 45% 3.0 mph E4.8 kmh E 6.5 mph10.5 kmh 30.21 in1023.0 mb 0.00 in0.0 mm 0.00 in0.0 mm 0.00 in0.0 mm
09:05 AM 75.5°F24.2°C 52.6°F11.4°C 45% 2.5 mph ESE4.0 kmh ESE 5.1 mph8.2 kmh 30.21 in1023.0 mb 0.00 in0.0 mm 0.00 in0.0 mm 0.00 in0.0 mm
09:10 AM 75.5°F24.2°C 52.6°F11.4°C 45% 2.2 mph ESE3.5 kmh ESE 5.1 mph8.2 kmh 30.21 in1023.0 mb 0.00 in0.0 mm 0.00 in0.0 mm 0.00 in0.0 mm
09:15 AM 75.8°F24.3°C 53.0°F11.7°C 45% 2.5 mph ENE4.0 kmh ENE 8.0 mph12.9 kmh 30.21 in1023.0 mb 0.00 in0.0 mm 0.00 in0.0 mm 0.00 in0.0 mm
09:20 AM 76.4°F24.7°C 52.8°F11.6°C 44% 3.0 mph ENE4.8 kmh ENE 8.0 mph12.9 kmh 30.21 in1023.0 mb 0.00 in0.0 mm 0.00 in0.0 mm 0.00 in0.0 mm
09:25 AM 77.3°F25.2°C 53.7°F12.1°C 44% 2.9 mph NE4.7 kmh NE 5.4 mph8.7 kmh 30.21 in1023.0 mb 0.00 in0.0 mm 0.00 in0.0 mm 0.00 in0.0 mm
09:30 AM 78.2°F25.7°C 54.5°F12.5°C 44% 3.8 mph NE6.1 kmh NE 5.7 mph9.2 kmh 30.21 in1023.0 mb 0.00 in0.0 mm 0.00 in0.0 mm 0.00 in0.0 mm
09:35 AM 78.9°F26.1°C 55.1°F12.8°C 44% 4.1 mph N6.6 kmh N 6.2 mph10.0 kmh 30.21 in1023.0 mb 0.00 in0.0 mm 0.00 in0.0 mm 0.00 in0.0 mm
09:40 AM 79.3°F26.3°C 55.4°F13.0°C 44% 4.4 mph NNW7.1 kmh NNW 10.1 mph16.3 kmh 30.21 in1023.0 mb 0.00 in0.0 mm 0.00 in0.0 mm 0.00 in0.0 mm
09:45 AM 79.8°F26.6°C 55.3°F12.9°C 43% 5.7 mph N9.2 kmh N 10.1 mph16.3 kmh 30.21 in1023.0 mb 0.00 in0.0 mm 0.00 in0.0 mm 0.00 in0.0 mm
09:50 AM 79.8°F26.6°C 55.3°F12.9°C 43% 6.0 mph N9.7 kmh N 8.3 mph13.4 kmh 30.21 in1023.0 mb 0.00 in0.0 mm 0.00 in0.0 mm 0.00 in0.0 mm
09:55 AM 79.8°F26.6°C 55.3°F12.9°C 43% 5.1 mph N8.2 kmh N 6.5 mph10.5 kmh 30.21 in1023.0 mb 0.00 in0.0 mm 0.00 in0.0 mm 0.00 in0.0 mm
10:00 AM 79.6°F26.4°C 55.1°F12.8°C 43% 5.2 mph NNE8.4 kmh NNE 7.1 mph11.4 kmh 30.21 in1023.0 mb 0.00 in0.0 mm 0.00 in0.0 mm 0.00 in0.0 mm
10:05 AM 79.4°F26.3°C 54.3°F12.4°C 42% 5.2 mph N8.4 kmh N 7.4 mph11.9 kmh 30.21 in1023.0 mb 0.00 in0.0 mm 0.00 in0.0 mm 0.00 in0.0 mm
10:10 AM 79.4°F26.3°C 54.3°F12.4°C 42% 4.8 mph N7.7 kmh N 7.4 mph11.9 kmh 30.18 in1022.0 mb 0.00 in0.0 mm 0.00 in0.0 mm 0.00 in0.0 mm
10:15 AM 79.6°F26.4°C 54.5°F12.5°C 42% 5.0 mph N8.0 kmh N 8.0 mph12.9 kmh 30.18 in1022.0 mb 0.00 in0.0 mm 0.00 in0.0 mm 0.00 in0.0 mm
10:20 AM 80.2°F26.8°C 55.0°F12.8°C 42% 4.7 mph N7.6 kmh N 8.0 mph12.9 kmh 30.18 in1022.0 mb 0.00 in0.0 mm 0.00 in0.0 mm 0.00 in0.0 mm
10:25 AM 80.3°F26.8°C 55.1°F12.8°C 42% 4.9 mph N7.9 kmh N 7.4 mph11.9 kmh 30.18 in1022.0 mb 0.00 in0.0 mm 0.00 in0.0 mm 0.00 in0.0 mm
10:30 AM 80.2°F26.8°C 55.0°F12.8°C 42% 5.1 mph NE8.2 kmh NE 7.4 mph11.9 kmh 30.18 in1022.0 mb 0.00 in0.0 mm 0.00 in0.0 mm 0.00 in0.0 mm
10:35 AM 80.3°F26.8°C 55.1°F12.8°C 42% 4.3 mph NNE6.9 kmh NNE 7.4 mph11.9 kmh 30.18 in1022.0 mb 0.00 in0.0 mm 0.00 in0.0 mm 0.00 in0.0 mm
10:40 AM 80.5°F26.9°C 55.3°F12.9°C 42% 3.9 mph N6.3 kmh N 7.4 mph11.9 kmh 30.18 in1022.0 mb 0.00 in0.0 mm 0.00 in0.0 mm 0.00 in0.0 mm
10:45 AM 81.1°F27.3°C 55.8°F13.2°C 42% 4.8 mph NNE7.7 kmh NNE 10.4 mph16.7 kmh 30.18 in1022.0 mb 0.00 in0.0 mm 0.00 in0.0 mm 0.00 in0.0 mm
10:50 AM 81.4°F27.4°C 55.4°F13.0°C 41% 6.9 mph N11.1 kmh N 10.4 mph16.7 kmh 30.18 in1022.0 mb 0.00 in0.0 mm 0.00 in0.0 mm 0.00 in0.0 mm
10:55 AM 81.4°F27.4°C 55.4°F13.0°C 41% 6.9 mph N11.1 kmh N 8.3 mph13.4 kmh 30.18 in1022.0 mb 0.00 in0.0 mm 0.00 in0.0 mm 0.00 in0.0 mm
11:00 AM 81.2°F27.3°C 55.3°F12.9°C 41% 6.0 mph NNW9.7 kmh NNW 8.3 mph13.4 kmh 30.18 in1022.0 mb 0.00 in0.0 mm 0.00 in0.0 mm 0.00 in0.0 mm
11:05 AM 81.6°F27.6°C 55.6°F13.1°C 41% 6.1 mph NNW9.8 kmh NNW 9.5 mph15.3 kmh 30.18 in1022.0 mb 0.00 in0.0 mm 0.00 in0.0 mm 0.00 in0.0 mm
11:10 AM 82.1°F27.8°C 55.4°F13.0°C 40% 6.2 mph NNW10.0 kmh NNW 9.5 mph15.3 kmh 30.18 in1022.0 mb 0.00 in0.0 mm 0.00 in0.0 mm 0.00 in0.0 mm
11:15 AM 82.7°F28.2°C 55.9°F13.3°C 40% 6.5 mph N10.5 kmh N 10.4 mph16.7 kmh 30.18 in1022.0 mb 0.00 in0.0 mm 0.00 in0.0 mm 0.00 in0.0 mm
11:20 AM 83.0°F28.3°C 56.2°F13.4°C 40% 6.8 mph N10.9 kmh N 10.4 mph16.7 kmh 30.18 in1022.0 mb 0.00 in0.0 mm 0.00 in0.0 mm 0.00 in0.0 mm
11:25 AM 83.0°F28.3°C 56.2°F13.4°C 40% 6.9 mph NNE11.1 kmh NNE 10.4 mph16.7 kmh 30.18 in1022.0 mb 0.00 in0.0 mm 0.00 in0.0 mm 0.00 in0.0 mm
11:30 AM 83.0°F28.3°C 55.5°F13.1°C 39% 5.4 mph NE8.7 kmh NE 7.7 mph12.4 kmh 30.18 in1022.0 mb 0.00 in0.0 mm 0.00 in0.0 mm 0.00 in0.0 mm
11:35 AM 83.4°F28.6°C 55.8°F13.2°C 39% 4.5 mph NE7.2 kmh NE 7.4 mph11.9 kmh 30.18 in1022.0 mb 0.00 in0.0 mm 0.00 in0.0 mm 0.00 in0.0 mm
11:40 AM 83.4°F28.6°C 55.8°F13.2°C 39% 4.6 mph NE7.4 kmh NE 7.4 mph11.9 kmh 30.18 in1022.0 mb 0.00 in0.0 mm 0.00 in0.0 mm 0.00 in0.0 mm
11:45 AM 83.8°F28.8°C 56.2°F13.4°C 39% 5.0 mph N8.0 kmh N 12.2 mph19.6 kmh 30.18 in1022.0 mb 0.00 in0.0 mm 0.00 in0.0 mm 0.00 in0.0 mm
11:50 AM 83.2°F28.4°C 55.7°F13.2°C 39% 6.4 mph NW10.3 kmh NW 12.2 mph19.6 kmh 30.18 in1022.0 mb 0.00 in0.0 mm 0.00 in0.0 mm 0.00 in0.0 mm
11:55 AM 82.8°F28.2°C 55.4°F13.0°C 39% 6.7 mph NNW10.8 kmh NNW 11.6 mph18.7 kmh 30.18 in1022.0 mb 0.00 in0.0 mm 0.00 in0.0 mm 0.00 in0.0 mm
12:00 PM 82.1°F27.8°C 54.7°F12.6°C 39% 7.0 mph NNW11.3 kmh NNW 11.3 mph18.2 kmh 30.18 in1022.0 mb 0.00 in0.0 mm 0.00 in0.0 mm 0.00 in0.0 mm
12:05 PM 81.9°F27.7°C 54.6°F12.6°C 39% 7.2 mph NW11.6 kmh NW 11.3 mph18.2 kmh 30.18 in1022.0 mb 0.00 in0.0 mm 0.00 in0.0 mm 0.00 in0.0 mm
12:10 PM 82.1°F27.8°C 54.7°F12.6°C 39% 6.7 mph NNW10.8 kmh NNW 10.4 mph16.7 kmh 30.18 in1022.0 mb 0.00 in0.0 mm 0.00 in0.0 mm 0.00 in0.0 mm
12:15 PM 82.5°F28.1°C 55.0°F12.8°C 39% 6.0 mph NNW9.7 kmh NNW 10.4 mph16.7 kmh 30.18 in1022.0 mb 0.00 in0.0 mm 0.00 in0.0 mm 0.00 in0.0 mm
12:20 PM 83.0°F28.3°C 54.8°F12.7°C 38% 5.8 mph NW9.3 kmh NW 10.4 mph16.7 kmh 30.18 in1022.0 mb 0.00 in0.0 mm 0.00 in0.0 mm 0.00 in0.0 mm
12:25 PM 83.4°F28.6°C 55.1°F12.8°C 38% 6.7 mph N10.8 kmh N 10.4 mph16.7 kmh 30.18 in1022.0 mb 0.00 in0.0 mm 0.00 in0.0 mm 0.00 in0.0 mm
12:30 PM 83.9°F28.8°C 55.6°F13.1°C 38% 7.0 mph N11.3 kmh N 10.7 mph17.2 kmh 30.18 in1022.0 mb 0.00 in0.0 mm 0.00 in0.0 mm 0.00 in0.0 mm
12:35 PM 83.9°F28.8°C 55.6°F13.1°C 38% 6.0 mph NW9.7 kmh NW 10.7 mph17.2 kmh 30.18 in1022.0 mb 0.00 in0.0 mm 0.00 in0.0 mm 0.00 in0.0 mm
12:40 PM 83.9°F28.8°C 54.9°F12.7°C 37% 5.7 mph NW9.2 kmh NW 10.1 mph16.3 kmh 30.18 in1022.0 mb 0.00 in0.0 mm 0.00 in0.0 mm 0.00 in0.0 mm
12:45 PM 84.1°F28.9°C 55.0°F12.8°C 37% 5.8 mph NW9.3 kmh NW 8.3 mph13.4 kmh 30.18 in1022.0 mb 0.00 in0.0 mm 0.00 in0.0 mm 0.00 in0.0 mm
12:50 PM 83.9°F28.8°C 54.9°F12.7°C 37% 5.1 mph NW8.2 kmh NW 8.0 mph12.9 kmh 30.18 in1022.0 mb 0.00 in0.0 mm 0.00 in0.0 mm 0.00 in0.0 mm
12:55 PM 83.8°F28.8°C 54.7°F12.6°C 37% 5.9 mph NNW9.5 kmh NNW 8.6 mph13.8 kmh 30.18 in1022.0 mb 0.00 in0.0 mm 0.00 in0.0 mm 0.00 in0.0 mm
01:00 PM 83.8°F28.8°C 54.0°F12.2°C 36% 5.7 mph NNW9.2 kmh NNW 8.6 mph13.8 kmh 30.18 in1022.0 mb 0.00 in0.0 mm 0.00 in0.0 mm 0.00 in0.0 mm
01:05 PM 83.4°F28.6°C 54.4°F12.4°C 37% 5.7 mph NNW9.2 kmh NNW 8.0 mph12.9 kmh 30.18 in1022.0 mb 0.00 in0.0 mm 0.00 in0.0 mm 0.00 in0.0 mm
01:10 PM 82.7°F28.2°C 53.0°F11.7°C 36% 6.0 mph NNW9.7 kmh NNW 8.0 mph12.9 kmh 30.18 in1022.0 mb 0.00 in0.0 mm 0.00 in0.0 mm 0.00 in0.0 mm
01:15 PM 82.5°F28.1°C 52.8°F11.6°C 36% 6.5 mph NNW10.5 kmh NNW 10.7 mph17.2 kmh 30.18 in1022.0 mb 0.00 in0.0 mm 0.00 in0.0 mm 0.00 in0.0 mm
01:20 PM 82.5°F28.1°C 52.8°F11.6°C 36% 6.4 mph NNW10.3 kmh NNW 10.7 mph17.2 kmh 30.18 in1022.0 mb 0.00 in0.0 mm 0.00 in0.0 mm 0.00 in0.0 mm
01:25 PM 82.7°F28.2°C 53.0°F11.7°C 36% 6.0 mph NNW9.7 kmh NNW 10.7 mph17.2 kmh 30.18 in1022.0 mb 0.00 in0.0 mm 0.00 in0.0 mm 0.00 in0.0 mm
01:30 PM 82.7°F28.2°C 53.0°F11.7°C 36% 6.6 mph NW10.6 kmh NW 8.9 mph14.3 kmh 30.18 in1022.0 mb 0.00 in0.0 mm 0.00 in0.0 mm 0.00 in0.0 mm
01:35 PM 82.3°F27.9°C 52.7°F11.5°C 36% 9.4 mph NW15.1 kmh NW 14.9 mph24.0 kmh 30.18 in1022.0 mb 0.00 in0.0 mm 0.00 in0.0 mm 0.00 in0.0 mm
01:40 PM 82.3°F27.9°C 52.7°F11.5°C 36% 9.5 mph NW15.3 kmh NW 14.9 mph24.0 kmh 30.15 in1021.0 mb 0.00 in0.0 mm 0.00 in0.0 mm 0.00 in0.0 mm
01:45 PM 82.5°F28.1°C 52.8°F11.6°C 36% 8.1 mph NNW13.0 kmh NNW 14.0 mph22.5 kmh 30.15 in1021.0 mb 0.00 in0.0 mm 0.00 in0.0 mm 0.00 in0.0 mm
01:50 PM 82.5°F28.1°C 52.8°F11.6°C 36% 7.6 mph NNW12.2 kmh NNW 11.6 mph18.7 kmh 30.15 in1021.0 mb 0.00 in0.0 mm 0.00 in0.0 mm 0.00 in0.0 mm
01:55 PM 82.5°F28.1°C 52.8°F11.6°C 36% 6.5 mph NNW10.5 kmh NNW 9.5 mph15.3 kmh 30.15 in1021.0 mb 0.00 in0.0 mm 0.00 in0.0 mm 0.00 in0.0 mm
02:00 PM 82.5°F28.1°C 52.8°F11.6°C 36% 6.5 mph NNW10.5 kmh NNW 13.4 mph21.6 kmh 30.15 in1021.0 mb 0.00 in0.0 mm 0.00 in0.0 mm 0.00 in0.0 mm
02:05 PM 82.5°F28.1°C 52.1°F11.2°C 35% 6.7 mph NNW10.8 kmh NNW 13.4 mph21.6 kmh 30.15 in1021.0 mb 0.00 in0.0 mm 0.00 in0.0 mm 0.00 in0.0 mm
02:10 PM 82.5°F28.1°C 52.1°F11.2°C 35% 6.7 mph NW10.8 kmh NW 10.1 mph16.3 kmh 30.18 in1022.0 mb 0.00 in0.0 mm 0.00 in0.0 mm 0.00 in0.0 mm
02:15 PM 82.1°F27.8°C 51.8°F11.0°C 35% 7.3 mph NW11.7 kmh NW 10.1 mph16.3 kmh 30.18 in1022.0 mb 0.00 in0.0 mm 0.00 in0.0 mm 0.00 in0.0 mm
02:20 PM 81.9°F27.7°C 51.6°F10.9°C 35% 7.5 mph NW12.1 kmh NW 10.1 mph16.3 kmh 30.18 in1022.0 mb 0.00 in0.0 mm 0.00 in0.0 mm 0.00 in0.0 mm
02:25 PM 82.1°F27.8°C 51.8°F11.0°C 35% 8.0 mph NW12.9 kmh NW 9.8 mph15.8 kmh 30.15 in1021.0 mb 0.00 in0.0 mm 0.00 in0.0 mm 0.00 in0.0 mm
02:30 PM 82.3°F27.9°C 51.9°F11.1°C 35% 7.3 mph NNW11.7 kmh NNW 15.2 mph24.5 kmh 30.15 in1021.0 mb 0.00 in0.0 mm 0.00 in0.0 mm 0.00 in0.0 mm
02:35 PM 82.5°F28.1°C 52.1°F11.2°C 35% 7.2 mph NNW11.6 kmh NNW 15.2 mph24.5 kmh 30.15 in1021.0 mb 0.00 in0.0 mm 0.00 in0.0 mm 0.00 in0.0 mm
02:40 PM 82.5°F28.1°C 52.8°F11.6°C 36% 7.8 mph NW12.6 kmh NW 10.7 mph17.2 kmh 30.15 in1021.0 mb 0.00 in0.0 mm 0.00 in0.0 mm 0.00 in0.0 mm
02:45 PM 82.7°F28.2°C 52.2°F11.2°C 35% 8.2 mph NNW13.2 kmh NNW 13.1 mph21.1 kmh 30.15 in1021.0 mb 0.00 in0.0 mm 0.00 in0.0 mm 0.00 in0.0 mm
02:50 PM 82.8°F28.2°C 53.2°F11.8°C 36% 8.1 mph NNW13.0 kmh NNW 13.1 mph21.1 kmh 30.15 in1021.0 mb 0.00 in0.0 mm 0.00 in0.0 mm 0.00 in0.0 mm
02:55 PM 83.0°F28.3°C 52.6°F11.4°C 35% 7.5 mph NNW12.1 kmh NNW 10.4 mph16.7 kmh 30.15 in1021.0 mb 0.00 in0.0 mm 0.00 in0.0 mm 0.00 in0.0 mm
03:00 PM 83.6°F28.7°C 53.0°F11.7°C 35% 6.8 mph NW10.9 kmh NW 8.9 mph14.3 kmh 30.15 in1021.0 mb 0.00 in0.0 mm 0.00 in0.0 mm 0.00 in0.0 mm
03:05 PM 83.2°F28.4°C 52.7°F11.5°C 35% 6.6 mph NW10.6 kmh NW 9.2 mph14.8 kmh 30.15 in1021.0 mb 0.00 in0.0 mm 0.00 in0.0 mm 0.00 in0.0 mm
03:10 PM 82.5°F28.1°C 52.8°F11.6°C 36% 7.7 mph NW12.4 kmh NW 10.4 mph16.7 kmh 30.15 in1021.0 mb 0.00 in0.0 mm 0.00 in0.0 mm 0.00 in0.0 mm
03:15 PM 81.6°F27.6°C 51.3°F10.7°C 35% 8.7 mph NW14.0 kmh NW 13.4 mph21.6 kmh 30.15 in1021.0 mb 0.00 in0.0 mm 0.00 in0.0 mm 0.00 in0.0 mm
03:20 PM 81.6°F27.6°C 51.3°F10.7°C 35% 8.2 mph NW13.2 kmh NW 13.4 mph21.6 kmh 30.15 in1021.0 mb 0.00 in0.0 mm 0.00 in0.0 mm 0.00 in0.0 mm
03:25 PM 80.5°F26.9°C 51.1°F10.6°C 36% 7.0 mph NW11.3 kmh NW 9.2 mph14.8 kmh 30.15 in1021.0 mb 0.00 in0.0 mm 0.00 in0.0 mm 0.00 in0.0 mm
03:30 PM 80.3°F26.8°C 50.9°F10.5°C 36% 6.6 mph NW10.6 kmh NW 8.6 mph13.8 kmh 30.15 in1021.0 mb 0.00 in0.0 mm 0.00 in0.0 mm 0.00 in0.0 mm
03:35 PM 80.7°F27.1°C 51.3°F10.7°C 36% 6.8 mph NNW10.9 kmh NNW 8.3 mph13.4 kmh 30.15 in1021.0 mb 0.00 in0.0 mm 0.00 in0.0 mm 0.00 in0.0 mm
03:40 PM 81.4°F27.4°C 51.9°F11.1°C 36% 6.5 mph NW10.5 kmh NW 9.8 mph15.8 kmh 30.15 in1021.0 mb 0.00 in0.0 mm 0.00 in0.0 mm 0.00 in0.0 mm
03:45 PM 81.6°F27.6°C 52.0°F11.1°C 36% 6.6 mph NW10.6 kmh NW 10.1 mph16.3 kmh 30.15 in1021.0 mb 0.00 in0.0 mm 0.00 in0.0 mm 0.00 in0.0 mm
03:50 PM 81.6°F27.6°C 52.0°F11.1°C 36% 6.9 mph NW11.1 kmh NW 10.4 mph16.7 kmh 30.15 in1021.0 mb 0.00 in0.0 mm 0.00 in0.0 mm 0.00 in0.0 mm
03:55 PM 81.6°F27.6°C 52.0°F11.1°C 36% 6.7 mph NW10.8 kmh NW 10.4 mph16.7 kmh 30.15 in1021.0 mb 0.00 in0.0 mm 0.00 in0.0 mm 0.00 in0.0 mm
04:00 PM 81.1°F27.3°C 51.6°F10.9°C 36% 7.5 mph NW12.1 kmh NW 11.6 mph18.7 kmh 30.15 in1021.0 mb 0.00 in0.0 mm 0.00 in0.0 mm 0.00 in0.0 mm
04:05 PM 81.2°F27.3°C 51.7°F10.9°C 36% 8.3 mph NW13.4 kmh NW 11.6 mph18.7 kmh 30.15 in1021.0 mb 0.00 in0.0 mm 0.00 in0.0 mm 0.00 in0.0 mm
04:10 PM 81.6°F27.6°C 52.0°F11.1°C 36% 7.2 mph NW11.6 kmh NW 10.1 mph16.3 kmh 30.15 in1021.0 mb 0.00 in0.0 mm 0.00 in0.0 mm 0.00 in0.0 mm
04:15 PM 81.9°F27.7°C 52.4°F11.3°C 36% 5.8 mph NW9.3 kmh NW 7.7 mph12.4 kmh 30.15 in1021.0 mb 0.00 in0.0 mm 0.00 in0.0 mm 0.00 in0.0 mm
04:20 PM 82.3°F27.9°C 51.9°F11.1°C 35% 6.1 mph NNW9.8 kmh NNW 10.4 mph16.7 kmh 30.15 in1021.0 mb 0.00 in0.0 mm 0.00 in0.0 mm 0.00 in0.0 mm
04:25 PM 82.1°F27.8°C 51.8°F11.0°C 35% 5.9 mph NW9.5 kmh NW 10.4 mph16.7 kmh 30.15 in1021.0 mb 0.00 in0.0 mm 0.00 in0.0 mm 0.00 in0.0 mm
04:30 PM 81.8°F27.7°C 51.4°F10.8°C 35% 5.3 mph NW8.5 kmh NW 9.8 mph15.8 kmh 30.15 in1021.0 mb 0.00 in0.0 mm 0.00 in0.0 mm 0.00 in0.0 mm
04:35 PM 81.6°F27.6°C 51.3°F10.7°C 35% 5.2 mph NNW8.4 kmh NNW 8.3 mph13.4 kmh 30.15 in1021.0 mb 0.00 in0.0 mm 0.00 in0.0 mm 0.00 in0.0 mm
04:40 PM 81.1°F27.3°C 50.8°F10.4°C 35% 5.4 mph NW8.7 kmh NW 8.3 mph13.4 kmh 30.15 in1021.0 mb 0.00 in0.0 mm 0.00 in0.0 mm 0.00 in0.0 mm
04:45 PM 80.7°F27.1°C 50.5°F10.3°C 35% 5.3 mph NW8.5 kmh NW 7.4 mph11.9 kmh 30.15 in1021.0 mb 0.00 in0.0 mm 0.00 in0.0 mm 0.00 in0.0 mm
04:50 PM 80.2°F26.8°C 50.0°F10.0°C 35% 5.6 mph NW9.0 kmh NW 7.4 mph11.9 kmh 30.15 in1021.0 mb 0.00 in0.0 mm 0.00 in0.0 mm 0.00 in0.0 mm
04:55 PM 79.6°F26.4°C 49.5°F9.7°C 35% 6.2 mph NW10.0 kmh NW 7.7 mph12.4 kmh 30.15 in1021.0 mb 0.00 in0.0 mm 0.00 in0.0 mm 0.00 in0.0 mm
05:00 PM 79.1°F26.2°C 49.8°F9.9°C 36% 6.9 mph NW11.1 kmh NW 9.5 mph15.3 kmh 30.15 in1021.0 mb 0.00 in0.0 mm 0.00 in0.0 mm 0.00 in0.0 mm
05:05 PM 79.4°F26.3°C 50.1°F10.1°C 36% 6.0 mph NW9.7 kmh NW 9.5 mph15.3 kmh 30.15 in1021.0 mb 0.00 in0.0 mm 0.00 in0.0 mm 0.00 in0.0 mm
05:10 PM 79.3°F26.3°C 50.0°F10.0°C 36% 5.0 mph NW8.0 kmh NW 7.1 mph11.4 kmh 30.15 in1021.0 mb 0.00 in0.0 mm 0.00 in0.0 mm 0.00 in0.0 mm
05:15 PM 78.9°F26.1°C 49.7°F9.8°C 36% 4.9 mph NW7.9 kmh NW 8.3 mph13.4 kmh 30.15 in1021.0 mb 0.00 in0.0 mm 0.00 in0.0 mm 0.00 in0.0 mm
05:20 PM 78.3°F25.7°C 49.2°F9.6°C 36% 3.7 mph NW6.0 kmh NW 8.3 mph13.4 kmh 30.15 in1021.0 mb 0.00 in0.0 mm 0.00 in0.0 mm 0.00 in0.0 mm
05:25 PM 77.6°F25.3°C 48.6°F9.2°C 36% 4.5 mph NW7.2 kmh NW 7.1 mph11.4 kmh 30.15 in1021.0 mb 0.00 in0.0 mm 0.00 in0.0 mm 0.00 in0.0 mm
05:30 PM 76.6°F24.8°C 48.3°F9.1°C 37% 5.9 mph NW9.5 kmh NW 8.0 mph12.9 kmh 30.15 in1021.0 mb 0.00 in0.0 mm 0.00 in0.0 mm 0.00 in0.0 mm
05:35 PM 76.4°F24.7°C 48.2°F9.0°C 37% 5.8 mph WNW9.3 kmh WNW 8.0 mph12.9 kmh 30.15 in1021.0 mb 0.00 in0.0 mm 0.00 in0.0 mm 0.00 in0.0 mm
05:40 PM 76.0°F24.4°C 48.6°F9.2°C 38% 5.9 mph WNW9.5 kmh WNW 8.0 mph12.9 kmh 30.15 in1021.0 mb 0.00 in0.0 mm 0.00 in0.0 mm 0.00 in0.0 mm
05:45 PM 75.8°F24.3°C 48.4°F9.1°C 38% 4.6 mph WNW7.4 kmh WNW 7.4 mph11.9 kmh 30.15 in1021.0 mb 0.00 in0.0 mm 0.00 in0.0 mm 0.00 in0.0 mm
05:50 PM 76.6°F24.8°C 49.0°F9.4°C 38% 4.3 mph NW6.9 kmh NW 7.1 mph11.4 kmh 30.15 in1021.0 mb 0.00 in0.0 mm 0.00 in0.0 mm 0.00 in0.0 mm
05:55 PM 76.9°F24.9°C 49.4°F9.7°C 38% 5.5 mph WNW8.9 kmh WNW 7.4 mph11.9 kmh 30.15 in1021.0 mb 0.00 in0.0 mm 0.00 in0.0 mm 0.00 in0.0 mm
06:00 PM 77.1°F25.1°C 50.2°F10.1°C 39% 5.0 mph WNW8.0 kmh WNW 7.4 mph11.9 kmh 30.15 in1021.0 mb 0.00 in0.0 mm 0.00 in0.0 mm 0.00 in0.0 mm
06:05 PM 77.6°F25.3°C 50.0°F10.0°C 38% 5.4 mph W8.7 kmh W 7.4 mph11.9 kmh 30.15 in1021.0 mb 0.00 in0.0 mm 0.00 in0.0 mm 0.00 in0.0 mm
06:10 PM 77.8°F25.4°C 50.2°F10.1°C 38% 5.0 mph W8.0 kmh W 7.4 mph11.9 kmh 30.15 in1021.0 mb 0.00 in0.0 mm 0.00 in0.0 mm 0.00 in0.0 mm
06:15 PM 78.0°F25.6°C 50.3°F10.2°C 38% 4.9 mph WNW7.9 kmh WNW 7.1 mph11.4 kmh 30.15 in1021.0 mb 0.00 in0.0 mm 0.00 in0.0 mm 0.00 in0.0 mm
06:20 PM 77.8°F25.4°C 50.2°F10.1°C 38% 5.2 mph NW8.4 kmh NW 7.1 mph11.4 kmh 30.15 in1021.0 mb 0.00 in0.0 mm 0.00 in0.0 mm 0.00 in0.0 mm
06:25 PM 77.4°F25.2°C 50.5°F10.3°C 39% 4.2 mph NW6.8 kmh NW 7.1 mph11.4 kmh 30.15 in1021.0 mb 0.00 in0.0 mm 0.00 in0.0 mm 0.00 in0.0 mm
06:30 PM 77.4°F25.2°C 50.5°F10.3°C 39% 4.0 mph WNW6.4 kmh WNW 7.1 mph11.4 kmh 30.15 in1021.0 mb 0.00 in0.0 mm 0.00 in0.0 mm 0.00 in0.0 mm
06:35 PM 76.2°F24.6°C 49.4°F9.7°C 39% 4.6 mph WNW7.4 kmh WNW 7.1 mph11.4 kmh 30.15 in1021.0 mb 0.00 in0.0 mm 0.00 in0.0 mm 0.00 in0.0 mm
06:40 PM 75.1°F23.9°C 49.1°F9.5°C 40% 4.8 mph NW7.7 kmh NW 7.4 mph11.9 kmh 30.15 in1021.0 mb 0.00 in0.0 mm 0.00 in0.0 mm 0.00 in0.0 mm
06:45 PM 74.4°F23.6°C 48.5°F9.2°C 40% 4.7 mph NW7.6 kmh NW 7.4 mph11.9 kmh 30.15 in1021.0 mb 0.00 in0.0 mm 0.00 in0.0 mm 0.00 in0.0 mm
06:50 PM 73.7°F23.2°C 48.5°F9.2°C 41% 4.4 mph NW7.1 kmh NW 7.7 mph12.4 kmh 30.15 in1021.0 mb 0.00 in0.0 mm 0.00 in0.0 mm 0.00 in0.0 mm
06:55 PM 73.1°F22.8°C 48.7°F9.3°C 42% 4.4 mph NW7.1 kmh NW 7.7 mph12.4 kmh 30.15 in1021.0 mb 0.00 in0.0 mm 0.00 in0.0 mm 0.00 in0.0 mm
07:00 PM 72.8°F22.7°C 48.3°F9.1°C 42% 4.0 mph NW6.4 kmh NW 5.7 mph9.2 kmh 30.15 in1021.0 mb 0.00 in0.0 mm 0.00 in0.0 mm 0.00 in0.0 mm
07:05 PM 72.4°F22.4°C 48.6°F9.2°C 43% 3.2 mph NW5.1 kmh NW 4.8 mph7.7 kmh 30.15 in1021.0 mb 0.00 in0.0 mm 0.00 in0.0 mm 0.00 in0.0 mm
07:10 PM 72.2°F22.3°C 48.5°F9.2°C 43% 3.2 mph NW5.1 kmh NW 5.7 mph9.2 kmh 30.15 in1021.0 mb 0.00 in0.0 mm 0.00 in0.0 mm 0.00 in0.0 mm
07:15 PM 72.1°F22.3°C 48.3°F9.1°C 43% 4.7 mph NNW7.6 kmh NNW 6.5 mph10.5 kmh 30.15 in1021.0 mb 0.00 in0.0 mm 0.00 in0.0 mm 0.00 in0.0 mm
07:20 PM 71.5°F21.9°C 47.8°F8.8°C 43% 5.6 mph N9.0 kmh N 8.3 mph13.4 kmh 30.15 in1021.0 mb 0.00 in0.0 mm 0.00 in0.0 mm 0.00 in0.0 mm
07:25 PM 71.3°F21.8°C 47.7°F8.7°C 43% 4.6 mph NNW7.4 kmh NNW 8.3 mph13.4 kmh 30.15 in1021.0 mb 0.00 in0.0 mm 0.00 in0.0 mm 0.00 in0.0 mm
07:30 PM 71.2°F21.8°C 47.5°F8.6°C 43% 5.2 mph NNW8.4 kmh NNW 8.3 mph13.4 kmh 30.15 in1021.0 mb 0.00 in0.0 mm 0.00 in0.0 mm 0.00 in0.0 mm
07:35 PM 71.0°F21.7°C 47.3°F8.5°C 43% 5.5 mph NNW8.9 kmh NNW 8.0 mph12.9 kmh 30.15 in1021.0 mb 0.00 in0.0 mm 0.00 in0.0 mm 0.00 in0.0 mm
07:40 PM 70.8°F21.6°C 47.2°F8.4°C 43% 4.7 mph NW7.6 kmh NW 8.0 mph12.9 kmh 30.15 in1021.0 mb 0.00 in0.0 mm 0.00 in0.0 mm 0.00 in0.0 mm
07:45 PM 70.4°F21.3°C 47.5°F8.6°C 44% 4.4 mph NNW7.1 kmh NNW 6.2 mph10.0 kmh 30.15 in1021.0 mb 0.00 in0.0 mm 0.00 in0.0 mm 0.00 in0.0 mm
07:50 PM 70.4°F21.3°C 47.5°F8.6°C 44% 4.5 mph N7.2 kmh N 5.4 mph8.7 kmh 30.15 in1021.0 mb 0.00 in0.0 mm 0.00 in0.0 mm 0.00 in0.0 mm
07:55 PM 70.3°F21.3°C 47.3°F8.5°C 44% 4.3 mph NW6.9 kmh NW 5.4 mph8.7 kmh 30.15 in1021.0 mb 0.00 in0.0 mm 0.00 in0.0 mm 0.00 in0.0 mm
08:00 PM 70.1°F21.2°C 47.1°F8.4°C 44% 4.7 mph NW7.6 kmh NW 5.7 mph9.2 kmh 30.15 in1021.0 mb 0.00 in0.0 mm 0.00 in0.0 mm 0.00 in0.0 mm
08:05 PM 70.1°F21.2°C 47.7°F8.7°C 45% 5.0 mph NNW8.0 kmh NNW 6.2 mph10.0 kmh 30.15 in1021.0 mb 0.00 in0.0 mm 0.00 in0.0 mm 0.00 in0.0 mm
08:10 PM 69.7°F20.9°C 47.4°F8.6°C 45% 3.9 mph NW6.3 kmh NW 6.2 mph10.0 kmh 30.15 in1021.0 mb 0.00 in0.0 mm 0.00 in0.0 mm 0.00 in0.0 mm
08:15 PM 69.7°F20.9°C 47.4°F8.6°C 45% 3.4 mph NNW5.5 kmh NNW 5.4 mph8.7 kmh 30.15 in1021.0 mb 0.00 in0.0 mm 0.00 in0.0 mm 0.00 in0.0 mm
08:20 PM 69.5°F20.8°C 47.2°F8.4°C 45% 4.3 mph NNW6.9 kmh NNW 5.4 mph8.7 kmh 30.15 in1021.0 mb 0.00 in0.0 mm 0.00 in0.0 mm 0.00 in0.0 mm
08:25 PM 69.3°F20.7°C 47.7°F8.7°C 46% 4.4 mph NNW7.1 kmh NNW 5.4 mph8.7 kmh 30.15 in1021.0 mb 0.00 in0.0 mm 0.00 in0.0 mm 0.00 in0.0 mm
08:30 PM 69.2°F20.7°C 48.1°F8.9°C 47% 4.0 mph NNW6.4 kmh NNW 5.4 mph8.7 kmh 30.15 in1021.0 mb 0.00 in0.0 mm 0.00 in0.0 mm 0.00 in0.0 mm
08:35 PM 69.2°F20.7°C 48.1°F8.9°C 47% 4.0 mph N6.4 kmh N 5.1 mph8.2 kmh 30.15 in1021.0 mb 0.00 in0.0 mm 0.00 in0.0 mm 0.00 in0.0 mm
08:40 PM 68.8°F20.4°C 47.8°F8.8°C 47% 3.6 mph NNW5.8 kmh NNW 5.1 mph8.2 kmh 30.15 in1021.0 mb 0.00 in0.0 mm 0.00 in0.0 mm 0.00 in0.0 mm
08:45 PM 68.8°F20.4°C 48.3°F9.1°C 48% 3.2 mph NW5.1 kmh NW 4.8 mph7.7 kmh 30.15 in1021.0 mb 0.00 in0.0 mm 0.00 in0.0 mm 0.00 in0.0 mm
08:50 PM 68.6°F20.3°C 48.1°F8.9°C 48% 3.2 mph NNW5.1 kmh NNW 4.8 mph7.7 kmh 30.15 in1021.0 mb 0.00 in0.0 mm 0.00 in0.0 mm 0.00 in0.0 mm
08:55 PM 68.4°F20.2°C 48.5°F9.2°C 49% 3.2 mph NNW5.1 kmh NNW 4.5 mph7.2 kmh 30.15 in1021.0 mb 0.00 in0.0 mm 0.00 in0.0 mm 0.00 in0.0 mm
09:00 PM 68.4°F20.2°C 48.5°F9.2°C 49% 3.3 mph NNW5.3 kmh NNW 5.1 mph8.2 kmh 30.15 in1021.0 mb 0.00 in0.0 mm 0.00 in0.0 mm 0.00 in0.0 mm
09:05 PM 68.4°F20.2°C 48.5°F9.2°C 49% 3.8 mph NNW6.1 kmh NNW 5.1 mph8.2 kmh 30.15 in1021.0 mb 0.00 in0.0 mm 0.00 in0.0 mm 0.00 in0.0 mm
09:10 PM 68.6°F20.3°C 48.7°F9.3°C 49% 4.0 mph NW6.4 kmh NW 5.1 mph8.2 kmh 30.15 in1021.0 mb 0.00 in0.0 mm 0.00 in0.0 mm 0.00 in0.0 mm
09:15 PM 68.6°F20.3°C 49.2°F9.6°C 50% 4.1 mph NW6.6 kmh NW 5.1 mph8.2 kmh 30.15 in1021.0 mb 0.00 in0.0 mm 0.00 in0.0 mm 0.00 in0.0 mm
09:20 PM 68.6°F20.3°C 49.2°F9.6°C 50% 3.7 mph NW6.0 kmh NW 5.1 mph8.2 kmh 30.15 in1021.0 mb 0.00 in0.0 mm 0.00 in0.0 mm 0.00 in0.0 mm
09:25 PM 68.8°F20.4°C 49.4°F9.7°C 50% 2.5 mph NNW4.0 kmh NNW 4.5 mph7.2 kmh 30.15 in1021.0 mb 0.00 in0.0 mm 0.00 in0.0 mm 0.00 in0.0 mm
09:30 PM 68.8°F20.4°C 49.4°F9.7°C 50% 2.5 mph NNW4.0 kmh NNW 4.5 mph7.2 kmh 30.15 in1021.0 mb 0.00 in0.0 mm 0.00 in0.0 mm 0.00 in0.0 mm
09:35 PM 68.8°F20.4°C 49.4°F9.7°C 50% 3.4 mph NNW5.5 kmh NNW 5.1 mph8.2 kmh 30.15 in1021.0 mb 0.00 in0.0 mm 0.00 in0.0 mm 0.00 in0.0 mm
09:40 PM 69.0°F20.6°C 49.6°F9.8°C 50% 3.1 mph NNW5.0 kmh NNW 5.1 mph8.2 kmh 30.15 in1021.0 mb 0.00 in0.0 mm 0.00 in0.0 mm 0.00 in0.0 mm
09:45 PM 69.0°F20.6°C 49.6°F9.8°C 50% 2.0 mph NW3.2 kmh NW 4.5 mph7.2 kmh 30.15 in1021.0 mb 0.00 in0.0 mm 0.00 in0.0 mm 0.00 in0.0 mm
09:50 PM 69.0°F20.6°C 49.6°F9.8°C 50% 1.7 mph NW2.7 kmh NW 3.0 mph4.8 kmh 30.15 in1021.0 mb 0.00 in0.0 mm 0.00 in0.0 mm 0.00 in0.0 mm
09:55 PM 69.0°F20.6°C 50.1°F10.1°C 51% 2.9 mph NW4.7 kmh NW 5.7 mph9.2 kmh 30.15 in1021.0 mb 0.00 in0.0 mm 0.00 in0.0 mm 0.00 in0.0 mm
10:00 PM 69.0°F20.6°C 50.1°F10.1°C 51% 3.1 mph NW5.0 kmh NW 5.7 mph9.2 kmh 30.15 in1021.0 mb 0.00 in0.0 mm 0.00 in0.0 mm 0.00 in0.0 mm
10:05 PM 69.0°F20.6°C 50.6°F10.3°C 52% 2.2 mph NW3.5 kmh NW 4.5 mph7.2 kmh 30.15 in1021.0 mb 0.00 in0.0 mm 0.00 in0.0 mm 0.00 in0.0 mm
10:10 PM 69.0°F20.6°C 50.6°F10.3°C 52% 1.9 mph NNW3.1 kmh NNW 3.3 mph5.3 kmh 30.15 in1021.0 mb 0.00 in0.0 mm 0.00 in0.0 mm 0.00 in0.0 mm
10:15 PM 69.0°F20.6°C 50.6°F10.3°C 52% 2.2 mph N3.5 kmh N 3.3 mph5.3 kmh 30.15 in1021.0 mb 0.00 in0.0 mm 0.00 in0.0 mm 0.00 in0.0 mm
10:20 PM 68.8°F20.4°C 50.5°F10.3°C 52% 2.8 mph N4.5 kmh N 4.8 mph7.7 kmh 30.15 in1021.0 mb 0.00 in0.0 mm 0.00 in0.0 mm 0.00 in0.0 mm
10:25 PM 68.8°F20.4°C 50.5°F10.3°C 52% 2.7 mph N4.3 kmh N 4.8 mph7.7 kmh 30.15 in1021.0 mb 0.00 in0.0 mm 0.00 in0.0 mm 0.00 in0.0 mm
10:30 PM 68.8°F20.4°C 50.5°F10.3°C 52% 2.3 mph N3.7 kmh N 4.2 mph6.8 kmh 30.15 in1021.0 mb 0.00 in0.0 mm 0.00 in0.0 mm 0.00 in0.0 mm
10:35 PM 68.8°F20.4°C 51.0°F10.6°C 53% 2.0 mph NNW3.2 kmh NNW 4.2 mph6.8 kmh 30.15 in1021.0 mb 0.00 in0.0 mm 0.00 in0.0 mm 0.00 in0.0 mm
10:40 PM 68.6°F20.3°C 50.8°F10.4°C 53% 0.9 mph NNW1.4 kmh NNW 4.2 mph6.8 kmh 30.15 in1021.0 mb 0.00 in0.0 mm 0.00 in0.0 mm 0.00 in0.0 mm
10:45 PM 68.6°F20.3°C 50.8°F10.4°C 53% 0.2 mph NNE0.3 kmh NNE 1.5 mph2.4 kmh 30.15 in1021.0 mb 0.00 in0.0 mm 0.00 in0.0 mm 0.00 in0.0 mm
10:50 PM 68.6°F20.3°C 50.8°F10.4°C 53% 0.4 mph N0.6 kmh N 1.5 mph2.4 kmh 30.15 in1021.0 mb 0.00 in0.0 mm 0.00 in0.0 mm 0.00 in0.0 mm
10:55 PM 68.4°F20.2°C 51.1°F10.6°C 54% 0.3 mph N0.5 kmh N 1.5 mph2.4 kmh 30.15 in1021.0 mb 0.00 in0.0 mm 0.00 in0.0 mm 0.00 in0.0 mm
11:00 PM 68.4°F20.2°C 51.1°F10.6°C 54% 0.5 mph N0.8 kmh N 2.1 mph3.4 kmh 30.15 in1021.0 mb 0.00 in0.0 mm 0.00 in0.0 mm 0.00 in0.0 mm
11:05 PM 68.3°F20.2°C 51.0°F10.6°C 54% 0.6 mph N1.0 kmh N 2.1 mph3.4 kmh 30.15 in1021.0 mb 0.00 in0.0 mm 0.00 in0.0 mm 0.00 in0.0 mm
11:10 PM 68.3°F20.2°C 51.0°F10.6°C 54% 0.3 mph NNE0.5 kmh NNE 3.3 mph5.3 kmh 30.15 in1021.0 mb 0.00 in0.0 mm 0.00 in0.0 mm 0.00 in0.0 mm
11:15 PM 68.3°F20.2°C 51.0°F10.6°C 54% 1.2 mph N1.9 kmh N 3.6 mph5.8 kmh 30.15 in1021.0 mb 0.00 in0.0 mm 0.00 in0.0 mm 0.00 in0.0 mm
11:20 PM 68.3°F20.2°C 50.5°F10.3°C 53% 2.0 mph N3.2 kmh N 3.9 mph6.3 kmh 30.15 in1021.0 mb 0.00 in0.0 mm 0.00 in0.0 mm 0.00 in0.0 mm
11:25 PM 68.3°F20.2°C 50.5°F10.3°C 53% 2.1 mph NNE3.4 kmh NNE 3.9 mph6.3 kmh 30.15 in1021.0 mb 0.00 in0.0 mm 0.00 in0.0 mm 0.00 in0.0 mm
11:30 PM 68.3°F20.2°C 50.5°F10.3°C 53% 2.3 mph NNE3.7 kmh NNE 3.9 mph6.3 kmh 30.15 in1021.0 mb 0.00 in0.0 mm 0.00 in0.0 mm 0.00 in0.0 mm
11:35 PM 68.3°F20.2°C 50.5°F10.3°C 53% 2.1 mph NE3.4 kmh NE 3.9 mph6.3 kmh 30.15 in1021.0 mb 0.00 in0.0 mm 0.00 in0.0 mm 0.00 in0.0 mm
11:40 PM 68.3°F20.2°C 50.0°F10.0°C 52% 2.0 mph NNE3.2 kmh NNE 5.4 mph8.7 kmh 30.15 in1021.0 mb 0.00 in0.0 mm 0.00 in0.0 mm 0.00 in0.0 mm
11:45 PM 68.3°F20.2°C 50.0°F10.0°C 52% 2.1 mph NE3.4 kmh NE 5.4 mph8.7 kmh 30.15 in1021.0 mb 0.00 in0.0 mm 0.00 in0.0 mm 0.00 in0.0 mm
11:50 PM 68.1°F20.1°C 49.8°F9.9°C 52% 2.0 mph NE3.2 kmh NE 3.3 mph5.3 kmh 30.15 in1021.0 mb 0.00 in0.0 mm 0.00 in0.0 mm 0.00 in0.0 mm
11:55 PM 68.1°F20.1°C 49.8°F9.9°C 52% 2.3 mph NE3.7 kmh NE 5.1 mph8.2 kmh 30.15 in1021.0 mb 0.00 in0.0 mm 0.00 in0.0 mm 0.00 in0.0 mm